Time;durP1;ratioP1;P1;durP2;ratioP2;P2;SDS_P1;SDS_P2;PMS_P1;PMS_P2;Temp;Humidity;BMP_temperature;BMP_pressure;BME280_temperature;BME280_humidity;BME280_pressure;Samples;Min_cycle;Max_cycle;Signal;HPM_P1;HPM_P2
2022/04/02 00:01:50;;;;;;;3.72;2.35;;;;;;;;;;4978479;28;20074;-82
2022/04/02 00:04:16;;;;;;;4.97;2.80;;;;;;;;;;4965540;28;20659;-82
2022/04/02 00:06:42;;;;;;;4.05;2.45;;;;;;;;;;4963670;28;20089;-83
2022/04/02 00:09:08;;;;;;;9.52;2.72;;;;;;;;;;4981362;28;20462;-82
2022/04/02 00:11:34;;;;;;;5.90;2.70;;;;;;;;;;4967377;28;20125;-83
2022/04/02 00:14:00;;;;;;;5.13;2.67;;;;;;;;;;4963078;28;20087;-83
2022/04/02 00:16:26;;;;;;;7.38;2.78;;;;;;;;;;4964125;28;20034;-83
2022/04/02 00:18:52;;;;;;;7.38;2.35;;;;;;;;;;4980738;28;20085;-82
2022/04/02 00:21:18;;;;;;;7.88;2.75;;;;;;;;;;4979410;28;20029;-82
2022/04/02 00:23:44;;;;;;;4.78;2.78;;;;;;;;;;4965304;28;20493;-80
2022/04/02 00:26:12;;;;;;;6.28;2.78;;;;;;;;;;4982773;28;20466;-82
2022/04/02 00:28:39;;;;;;;7.55;2.90;;;;;;;;;;4961080;28;20108;-82
2022/04/02 00:31:07;;;;;;;4.30;2.63;;;;;;;;;;4982916;28;20030;-82
2022/04/02 00:33:34;;;;;;;6.05;2.95;;;;;;;;;;4977048;28;20173;-83
2022/04/02 00:36:00;;;;;;;6.57;2.72;;;;;;;;;;4983192;28;20767;-82
2022/04/02 00:38:26;;;;;;;11.07;2.85;;;;;;;;;;4961316;28;20703;-82
2022/04/02 00:40:53;;;;;;;6.35;2.75;;;;;;;;;;4967139;28;20474;-79
2022/04/02 00:43:31;;;;;;;8.60;2.65;;;;;;;;;;4963861;28;20033;-81
2022/04/02 00:45:59;;;;;;;6.28;2.85;;;;;;;;;;4965510;28;20738;-82
2022/04/02 00:48:27;;;;;;;6.00;2.72;;;;;;;;;;4975284;28;20045;-82
2022/04/02 00:50:55;;;;;;;6.10;2.80;;;;;;;;;;4969789;28;20043;-81
2022/04/02 00:53:22;;;;;;;8.25;2.78;;;;;;;;;;4971820;28;20498;-82
2022/04/02 00:55:48;;;;;;;7.88;2.80;;;;;;;;;;4978945;28;20410;-82
2022/04/02 00:58:14;;;;;;;5.70;2.45;;;;;;;;;;4965476;28;20486;-81
2022/04/02 01:00:40;;;;;;;7.53;2.85;;;;;;;;;;4979026;28;20156;-82
2022/04/02 01:03:07;;;;;;;9.82;2.63;;;;;;;;;;4979808;28;20022;-82
2022/04/02 01:05:35;;;;;;;9.05;2.97;;;;;;;;;;4966560;28;20061;-81
2022/04/02 01:08:04;;;;;;;7.15;3.10;;;;;;;;;;4964569;28;20026;-81
2022/04/02 01:10:30;;;;;;;8.35;2.72;;;;;;;;;;4961378;28;20022;-82
2022/04/02 01:12:56;;;;;;;8.18;3.20;;;;;;;;;;4967287;28;20101;-82
2022/04/02 01:15:22;;;;;;;10.32;2.90;;;;;;;;;;4964392;28;20172;-82
2022/04/02 01:17:48;;;;;;;4.60;2.42;;;;;;;;;;4966874;28;20699;-82
2022/04/02 01:20:15;;;;;;;9.18;3.00;;;;;;;;;;4962776;28;20046;-83
2022/04/02 01:22:41;;;;;;;5.97;2.65;;;;;;;;;;4960337;28;20081;-83
2022/04/02 01:25:08;;;;;;;6.30;2.35;;;;;;;;;;4967595;28;20030;-82
2022/04/02 01:27:34;;;;;;;4.97;2.30;;;;;;;;;;4963905;28;20041;-83
2022/04/02 01:30:00;;;;;;;3.55;2.10;;;;;;;;;;4980421;28;20034;-83
2022/04/02 01:32:26;;;;;;;6.28;2.47;;;;;;;;;;4979843;28;20034;-79
2022/04/02 01:34:52;;;;;;;8.00;2.55;;;;;;;;;;4967155;28;20084;-82
2022/04/02 01:37:18;;;;;;;6.60;2.28;;;;;;;;;;4970600;28;20122;-81
2022/04/02 01:39:44;;;;;;;6.57;2.38;;;;;;;;;;4962857;28;21896;-81
2022/04/02 01:42:12;;;;;;;5.78;2.30;;;;;;;;;;4969233;28;20027;-80
2022/04/02 01:44:38;;;;;;;10.73;2.35;;;;;;;;;;4979850;28;20066;-83
2022/04/02 01:47:04;;;;;;;5.65;2.55;;;;;;;;;;4969099;28;20089;-80
2022/04/02 01:49:30;;;;;;;6.57;2.42;;;;;;;;;;4965629;28;20026;-79
2022/04/02 01:51:56;;;;;;;6.75;2.30;;;;;;;;;;4961536;28;20031;-81
2022/04/02 01:54:22;;;;;;;4.88;2.65;;;;;;;;;;4965319;28;20438;-80
2022/04/02 01:56:48;;;;;;;6.85;2.45;;;;;;;;;;4977392;28;20059;-81
2022/04/02 01:59:15;;;;;;;7.65;2.50;;;;;;;;;;4981120;28;20078;-80
2022/04/02 02:01:47;;;;;;;5.03;2.10;;;;;;;;;;4978727;28;20058;-81
2022/04/02 02:04:13;;;;;;;9.98;2.95;;;;;;;;;;4966502;28;20037;-81
2022/04/02 02:06:40;;;;;;;5.47;2.78;;;;;;;;;;4963487;28;20026;-81
2022/04/02 02:09:08;;;;;;;5.82;2.35;;;;;;;;;;4962151;28;20081;-81
2022/04/02 02:11:34;;;;;;;11.93;2.40;;;;;;;;;;4964342;28;20031;-81
2022/04/02 02:14:00;;;;;;;6.82;2.30;;;;;;;;;;4970491;28;20128;-81
2022/04/02 02:16:26;;;;;;;7.63;2.42;;;;;;;;;;4983152;28;20934;-82
2022/04/02 02:18:52;;;;;;;4.75;2.20;;;;;;;;;;4978905;28;20058;-81
2022/04/02 02:21:18;;;;;;;7.47;2.67;;;;;;;;;;4963571;28;20477;-81
2022/04/02 02:23:44;;;;;;;8.15;2.50;;;;;;;;;;4960806;28;20030;-82
2022/04/02 02:26:10;;;;;;;7.45;2.40;;;;;;;;;;4965007;28;20035;-81
2022/04/02 02:28:36;;;;;;;6.40;2.42;;;;;;;;;;4963608;28;20137;-81
2022/04/02 02:31:03;;;;;;;11.07;2.38;;;;;;;;;;4963926;28;20801;-81
2022/04/02 02:36:15;;;;;;;5.65;2.17;;;;;;;;;;4981597;28;20054;-81
2022/04/02 02:38:41;;;;;;;14.35;2.65;;;;;;;;;;4961224;28;20608;-81
2022/04/02 02:41:10;;;;;;;5.53;2.47;;;;;;;;;;4970524;28;20522;-81
2022/04/02 02:43:36;;;;;;;9.45;2.17;;;;;;;;;;4959019;28;20031;-82
2022/04/02 02:46:02;;;;;;;6.65;2.42;;;;;;;;;;4963300;28;20065;-81
2022/04/02 02:48:28;;;;;;;4.38;2.38;;;;;;;;;;4967174;28;20026;-81
2022/04/02 02:50:54;;;;;;;4.28;2.33;;;;;;;;;;4965206;28;20039;-81
2022/04/02 02:53:20;;;;;;;4.95;2.30;;;;;;;;;;4964931;28;20027;-81
2022/04/02 02:55:48;;;;;;;6.50;2.53;;;;;;;;;;4974983;28;20532;-81
2022/04/02 02:58:14;;;;;;;4.63;2.20;;;;;;;;;;4978049;28;20117;-81
2022/04/02 03:00:40;;;;;;;5.00;1.77;;;;;;;;;;4968590;28;20116;-81
2022/04/02 03:03:07;;;;;;;2.95;1.90;;;;;;;;;;4982351;28;20541;-81
2022/04/02 03:05:33;;;;;;;5.35;2.38;;;;;;;;;;4967927;28;20048;-82
2022/04/02 03:07:59;;;;;;;4.70;2.33;;;;;;;;;;4969276;28;21593;-82
2022/04/02 03:10:29;;;;;;;6.78;2.40;;;;;;;;;;4967720;28;20050;-82
2022/04/02 03:12:57;;;;;;;15.13;2.30;;;;;;;;;;4969101;28;20062;-82
2022/04/02 03:15:24;;;;;;;3.92;2.22;;;;;;;;;;4970310;28;20041;-82
2022/04/02 03:17:51;;;;;;;3.40;2.35;;;;;;;;;;4964495;28;20564;-82
2022/04/02 03:20:18;;;;;;;4.55;2.35;;;;;;;;;;4981864;28;20031;-82
2022/04/02 03:22:45;;;;;;;3.60;2.05;;;;;;;;;;4967332;28;20026;-82
2022/04/02 03:25:13;;;;;;;6.60;2.58;;;;;;;;;;4964941;28;20371;-82
2022/04/02 03:27:40;;;;;;;9.25;2.50;;;;;;;;;;4965758;28;20113;-81
2022/04/02 03:30:07;;;;;;;4.43;2.13;;;;;;;;;;4965738;28;20033;-82
2022/04/02 03:32:34;;;;;;;6.50;2.22;;;;;;;;;;4970965;28;20401;-82
2022/04/02 03:35:00;;;;;;;6.03;2.80;;;;;;;;;;4963378;28;20037;-81
2022/04/02 03:37:26;;;;;;;7.93;2.40;;;;;;;;;;4977638;28;20054;-82
2022/04/02 03:39:52;;;;;;;9.90;2.30;;;;;;;;;;4967238;28;20397;-82
2022/04/02 03:42:19;;;;;;;8.43;2.22;;;;;;;;;;4966743;28;20022;-81
2022/04/02 03:44:45;;;;;;;7.82;2.58;;;;;;;;;;4964062;28;20034;-82
2022/04/02 03:47:11;;;;;;;3.42;1.73;;;;;;;;;;4967117;28;20256;-81
2022/04/02 03:49:41;;;;;;;6.90;2.20;;;;;;;;;;4966721;28;20039;-82
2022/04/02 03:52:08;;;;;;;4.93;2.10;;;;;;;;;;4961856;28;20823;-81
2022/04/02 03:54:39;;;;;;;7.70;2.13;;;;;;;;;;4962334;28;20074;-82
2022/04/02 03:57:09;;;;;;;7.82;2.08;;;;;;;;;;4965582;28;20034;-83
2022/04/02 03:59:35;;;;;;;4.63;1.90;;;;;;;;;;4968898;28;20034;-83
2022/04/02 04:02:01;;;;;;;8.18;2.03;;;;;;;;;;4981228;28;20054;-82
2022/04/02 04:04:28;;;;;;;4.35;2.20;;;;;;;;;;4976379;28;20050;-82
2022/04/02 04:06:56;;;;;;;4.10;2.05;;;;;;;;;;4966252;28;20054;-81
2022/04/02 04:09:22;;;;;;;9.23;2.03;;;;;;;;;;4965374;28;20026;-82
2022/04/02 04:11:48;;;;;;;10.30;2.33;;;;;;;;;;4981416;28;20820;-81
2022/04/02 04:14:22;;;;;;;4.63;2.50;;;;;;;;;;4966513;28;20444;-81
2022/04/02 04:16:48;;;;;;;4.03;1.85;;;;;;;;;;4975548;28;20034;-81
2022/04/02 04:19:14;;;;;;;3.97;1.80;;;;;;;;;;4967214;28;20623;-81
2022/04/02 04:21:41;;;;;;;3.20;1.98;;;;;;;;;;4966488;28;20041;-81
2022/04/02 04:24:08;;;;;;;4.45;1.75;;;;;;;;;;4964853;28;20042;-81
2022/04/02 04:26:34;;;;;;;4.25;1.98;;;;;;;;;;4960800;28;20027;-81
2022/04/02 04:29:00;;;;;;;4.85;1.67;;;;;;;;;;4958664;28;20482;-82
2022/04/02 04:31:26;;;;;;;5.50;1.90;;;;;;;;;;4974360;28;20499;-80
2022/04/02 04:33:52;;;;;;;6.35;2.35;;;;;;;;;;4963393;28;20117;-81
2022/04/02 04:36:19;;;;;;;5.63;2.50;;;;;;;;;;4967359;28;20054;-82
2022/04/02 04:38:45;;;;;;;8.57;1.85;;;;;;;;;;4977998;28;20367;-81
2022/04/02 04:41:11;;;;;;;5.00;1.75;;;;;;;;;;4967738;28;20162;-81
2022/04/02 04:43:37;;;;;;;3.95;1.88;;;;;;;;;;4964807;28;21349;-81
2022/04/02 04:46:04;;;;;;;3.95;2.13;;;;;;;;;;4961132;28;20398;-81
2022/04/02 04:48:30;;;;;;;6.05;2.08;;;;;;;;;;4980689;28;20035;-81
2022/04/02 04:50:56;;;;;;;6.97;2.13;;;;;;;;;;4974721;28;20033;-81
2022/04/02 04:53:22;;;;;;;2.10;1.58;;;;;;;;;;4968799;28;20128;-81
2022/04/02 04:55:48;;;;;;;5.03;2.35;;;;;;;;;;4980264;28;20030;-81
2022/04/02 04:58:14;;;;;;;4.60;1.77;;;;;;;;;;4983762;28;20041;-81
2022/04/02 05:00:41;;;;;;;5.05;2.60;;;;;;;;;;4977529;28;20049;-81
2022/04/02 05:03:10;;;;;;;12.95;2.60;;;;;;;;;;4964603;28;20051;-81
2022/04/02 05:05:38;;;;;;;7.00;2.38;;;;;;;;;;4981740;28;20320;-81
2022/04/02 05:08:04;;;;;;;9.35;2.70;;;;;;;;;;4978577;28;20450;-80
2022/04/02 05:10:30;;;;;;;8.55;3.47;;;;;;;;;;4967473;28;20461;-80
2022/04/02 05:12:56;;;;;;;11.02;4.95;;;;;;;;;;4965381;28;20045;-81
2022/04/02 05:15:22;;;;;;;5.40;2.60;;;;;;;;;;4964554;28;20619;-80
2022/04/02 05:17:49;;;;;;;8.35;2.42;;;;;;;;;;4963018;28;20030;-81
2022/04/02 05:20:15;;;;;;;16.88;3.00;;;;;;;;;;4964072;28;20034;-81
2022/04/02 05:22:41;;;;;;;9.82;2.75;;;;;;;;;;4961161;28;20023;-81
2022/04/02 05:25:08;;;;;;;6.95;2.60;;;;;;;;;;4966102;28;20154;-81
2022/04/02 05:27:34;;;;;;;6.90;2.63;;;;;;;;;;4978992;28;20038;-81
2022/04/02 05:30:01;;;;;;;6.15;2.53;;;;;;;;;;4960385;28;20039;-81
2022/04/02 05:32:30;;;;;;;19.73;6.95;;;;;;;;;;4966343;28;20030;-81
2022/04/02 05:34:56;;;;;;;7.65;3.58;;;;;;;;;;4967018;28;20441;-81
2022/04/02 05:37:23;;;;;;;6.82;3.75;;;;;;;;;;4965641;28;20046;-81
2022/04/02 05:39:49;;;;;;;6.88;2.22;;;;;;;;;;4964284;28;20129;-81
2022/04/02 05:42:15;;;;;;;11.65;2.45;;;;;;;;;;4983810;28;20185;-80
2022/04/02 05:44:41;;;;;;;6.68;2.53;;;;;;;;;;4964757;28;20034;-81
2022/04/02 05:47:07;;;;;;;7.07;2.55;;;;;;;;;;4964064;28;20037;-81
2022/04/02 05:49:33;;;;;;;5.50;2.30;;;;;;;;;;4967170;28;20141;-80
2022/04/02 05:52:00;;;;;;;8.50;2.47;;;;;;;;;;4981908;28;20445;-80
2022/04/02 05:54:26;;;;;;;7.03;2.70;;;;;;;;;;4981086;28;20174;-80
2022/04/02 05:56:53;;;;;;;10.05;2.60;;;;;;;;;;4963114;28;20038;-80
2022/04/02 05:59:19;;;;;;;5.53;2.28;;;;;;;;;;4960643;28;20041;-80
2022/04/02 06:01:45;;;;;;;8.77;2.58;;;;;;;;;;4966295;28;20137;-80
2022/04/02 06:04:12;;;;;;;7.47;2.53;;;;;;;;;;4974596;28;20026;-81
2022/04/02 06:06:38;;;;;;;4.85;2.40;;;;;;;;;;4962393;28;20031;-80
2022/04/02 06:09:04;;;;;;;5.85;2.75;;;;;;;;;;4962274;28;20037;-81
2022/04/02 06:11:30;;;;;;;6.05;2.80;;;;;;;;;;4980754;28;20090;-80
2022/04/02 06:14:00;;;;;;;3.50;1.98;;;;;;;;;;4968020;28;20039;-80
2022/04/02 06:16:26;;;;;;;5.50;1.88;;;;;;;;;;4967028;28;20430;-80
2022/04/02 06:18:53;;;;;;;3.47;1.80;;;;;;;;;;4966058;28;20359;-81
2022/04/02 06:21:19;;;;;;;4.88;2.10;;;;;;;;;;4971498;28;20526;-80
2022/04/02 06:23:46;;;;;;;2.88;1.90;;;;;;;;;;4969297;28;20033;-79
2022/04/02 06:26:12;;;;;;;3.72;2.13;;;;;;;;;;4980454;28;20142;-80
2022/04/02 06:28:39;;;;;;;2.47;1.80;;;;;;;;;;4970002;28;20297;-79
2022/04/02 06:31:06;;;;;;;5.93;1.80;;;;;;;;;;4969133;28;20034;-79
2022/04/02 06:33:32;;;;;;;7.05;2.05;;;;;;;;;;4969383;28;20029;-79
2022/04/02 06:35:59;;;;;;;6.30;1.80;;;;;;;;;;4979844;28;20053;-79
2022/04/02 06:38:25;;;;;;;4.07;1.80;;;;;;;;;;4966008;28;20092;-80
2022/04/02 06:40:51;;;;;;;1.60;1.15;;;;;;;;;;4961969;28;20038;-79
2022/04/02 06:43:17;;;;;;;7.20;1.77;;;;;;;;;;4964076;28;20415;-79
2022/04/02 06:45:43;;;;;;;6.18;1.58;;;;;;;;;;4980120;28;20478;-79
2022/04/02 06:48:09;;;;;;;11.00;4.40;;;;;;;;;;4968629;28;20092;-79
2022/04/02 06:50:36;;;;;;;4.40;1.70;;;;;;;;;;4965682;28;20089;-82
2022/04/02 06:53:02;;;;;;;4.05;1.63;;;;;;;;;;4980604;28;20026;-83
2022/04/02 06:55:28;;;;;;;7.55;1.77;;;;;;;;;;4985415;28;20117;-82
2022/04/02 06:57:58;;;;;;;4.07;2.08;;;;;;;;;;4984993;28;20794;-82
2022/04/02 07:00:24;;;;;;;4.80;1.40;;;;;;;;;;4986777;28;20140;-81
2022/04/02 07:02:50;;;;;;;2.15;1.52;;;;;;;;;;4958236;28;20655;-82
2022/04/02 07:05:18;;;;;;;7.63;2.03;;;;;;;;;;4962938;28;20121;-82
2022/04/02 07:07:44;;;;;;;3.85;1.70;;;;;;;;;;4962102;28;20030;-82
2022/04/02 07:10:11;;;;;;;4.18;2.00;;;;;;;;;;4963441;28;20061;-82
2022/04/02 07:12:37;;;;;;;3.08;1.77;;;;;;;;;;4963099;28;20038;-82
2022/04/02 07:15:10;;;;;;;5.18;1.58;;;;;;;;;;4958785;28;20581;-81
2022/04/02 07:17:36;;;;;;;8.45;1.92;;;;;;;;;;4966875;28;20463;-82
2022/04/02 07:20:03;;;;;;;7.90;1.70;;;;;;;;;;4948781;28;20042;-79
2022/04/02 07:22:29;;;;;;;3.58;1.58;;;;;;;;;;4967068;28;20055;-78
2022/04/02 07:24:56;;;;;;;3.10;1.40;;;;;;;;;;4963019;28;20113;-79
2022/04/02 07:27:27;;;;;;;3.03;1.58;;;;;;;;;;4967516;28;20110;-79
2022/04/02 07:29:54;;;;;;;1.48;1.38;;;;;;;;;;4948469;28;20478;-80
2022/04/02 07:32:20;;;;;;;3.55;1.40;;;;;;;;;;4944983;28;20031;-80
2022/04/02 07:34:46;;;;;;;4.38;2.08;;;;;;;;;;4948074;28;20055;-80
2022/04/02 07:37:41;;;;;;;9.55;2.03;;;;;;;;;;4948488;28;20031;-81
2022/04/02 07:40:09;;;;;;;2.42;1.25;;;;;;;;;;4947748;28;20527;-79
2022/04/02 07:42:54;;;;;;;6.10;1.50;;;;;;;;;;4951076;28;20049;-79
2022/04/02 07:45:26;;;;;;;2.13;1.50;;;;;;;;;;4943280;28;20026;-79
2022/04/02 07:47:56;;;;;;;3.42;1.73;;;;;;;;;;4948249;28;20027;-79
2022/04/02 07:50:24;;;;;;;7.30;1.80;;;;;;;;;;4963298;28;20038;-80
2022/04/02 07:52:56;;;;;;;5.07;1.70;;;;;;;;;;4948336;28;20034;-79
2022/04/02 07:55:23;;;;;;;3.38;1.63;;;;;;;;;;4961451;28;20662;-79
2022/04/02 07:57:50;;;;;;;4.30;1.58;;;;;;;;;;4948888;28;20050;-79
2022/04/02 08:00:19;;;;;;;1.60;1.50;;;;;;;;;;4963498;28;20095;-82
2022/04/02 08:02:46;;;;;;;3.67;2.28;;;;;;;;;;4958855;28;20157;-81
2022/04/02 08:05:15;;;;;;;3.58;2.25;;;;;;;;;;4961539;28;20027;-81
2022/04/02 08:07:43;;;;;;;8.52;2.67;;;;;;;;;;4965106;28;20038;-82
2022/04/02 08:10:11;;;;;;;4.20;1.88;;;;;;;;;;4963267;28;20117;-82
2022/04/02 08:12:38;;;;;;;4.07;1.90;;;;;;;;;;4980555;28;20030;-82
2022/04/02 08:15:09;;;;;;;5.35;1.30;;;;;;;;;;4972401;28;20026;-82
2022/04/02 08:17:37;;;;;;;3.55;1.60;;;;;;;;;;4965644;28;20158;-83
2022/04/02 08:20:03;;;;;;;4.05;1.40;;;;;;;;;;4964855;28;20038;-81
2022/04/02 08:22:29;;;;;;;2.08;1.38;;;;;;;;;;4980952;28;20516;-81
2022/04/02 08:24:56;;;;;;;2.70;1.38;;;;;;;;;;4979184;28;20374;-81
2022/04/02 08:27:38;;;;;;;2.63;1.33;;;;;;;;;;4961304;28;20026;-81
2022/04/02 08:30:04;;;;;;;4.75;1.45;;;;;;;;;;4969615;28;20046;-82
2022/04/02 08:32:37;;;;;;;5.90;1.73;;;;;;;;;;4961425;28;20038;-82
2022/04/02 08:35:10;;;;;;;4.57;1.92;;;;;;;;;;4966536;28;20045;-82
2022/04/02 08:37:39;;;;;;;4.35;1.67;;;;;;;;;;4977512;28;20124;-82
2022/04/02 08:40:24;;;;;;;9.40;1.50;;;;;;;;;;4970281;28;20045;-81
2022/04/02 08:43:02;;;;;;;2.40;1.63;;;;;;;;;;4975544;28;20048;-81
2022/04/02 08:45:29;;;;;;;5.63;1.58;;;;;;;;;;4976849;28;20134;-81
2022/04/02 08:48:12;;;;;;;3.33;1.20;;;;;;;;;;4980445;28;20038;-82
2022/04/02 08:50:42;;;;;;;2.00;1.35;;;;;;;;;;4969520;28;20044;-81
2022/04/02 08:53:14;;;;;;;3.55;1.83;;;;;;;;;;4966027;28;20204;-82
2022/04/02 08:55:48;;;;;;;3.65;1.20;;;;;;;;;;4959750;28;20049;-81
2022/04/02 08:58:24;;;;;;;5.72;1.45;;;;;;;;;;4974226;28;20108;-81
2022/04/02 09:01:20;;;;;;;2.85;1.30;;;;;;;;;;4964371;28;20100;-81
2022/04/02 09:03:55;;;;;;;8.18;1.73;;;;;;;;;;4932778;28;20574;-82
2022/04/02 09:06:33;;;;;;;4.47;1.20;;;;;;;;;;4960312;28;20114;-82
2022/04/02 09:09:03;;;;;;;3.80;1.58;;;;;;;;;;4942148;28;20490;-81
2022/04/02 09:11:43;;;;;;;6.45;1.77;;;;;;;;;;4956198;28;20039;-82
2022/04/02 09:14:39;;;;;;;5.78;1.80;;;;;;;;;;4942535;28;20078;-82
2022/04/02 09:17:11;;;;;;;3.33;1.23;;;;;;;;;;4891601;28;20067;-81
2022/04/02 09:19:55;;;;;;;2.95;1.40;;;;;;;;;;4945945;28;20031;-82
2022/04/02 09:22:35;;;;;;;5.90;1.42;;;;;;;;;;4950704;28;20061;-82
2022/04/02 09:25:26;;;;;;;14.82;1.40;;;;;;;;;;4960506;28;20624;-82
2022/04/02 09:27:52;;;;;;;4.22;1.77;;;;;;;;;;4961589;28;20058;-82
2022/04/02 09:30:18;;;;;;;7.30;1.55;;;;;;;;;;4941096;28;20165;-82
2022/04/02 09:33:03;;;;;;;4.47;1.50;;;;;;;;;;4961419;28;20026;-82
2022/04/02 09:35:48;;;;;;;3.30;1.58;;;;;;;;;;4955561;28;20053;-82
2022/04/02 09:38:14;;;;;;;2.70;1.77;;;;;;;;;;4958048;28;20038;-82
2022/04/02 09:40:48;;;;;;;3.67;1.90;;;;;;;;;;4946227;28;20038;-82
2022/04/02 09:43:31;;;;;;;4.00;1.90;;;;;;;;;;4955769;28;20530;-82
2022/04/02 09:46:14;;;;;;;1.40;1.20;;;;;;;;;;4961095;28;20121;-82
2022/04/02 09:48:51;;;;;;;4.28;1.48;;;;;;;;;;4950654;28;20043;-81
2022/04/02 09:51:20;;;;;;;3.28;1.85;;;;;;;;;;4963157;28;20030;-81
2022/04/02 09:53:52;;;;;;;6.78;2.38;;;;;;;;;;4951494;28;20031;-81
2022/04/02 09:56:28;;;;;;;4.70;2.10;;;;;;;;;;4947762;28;20043;-81
2022/04/02 09:59:04;;;;;;;3.10;1.52;;;;;;;;;;4945565;28;20086;-81
2022/04/02 10:01:30;;;;;;;6.10;2.05;;;;;;;;;;4960411;28;20409;-80
2022/04/02 10:04:00;;;;;;;3.90;3.05;;;;;;;;;;4956349;28;20642;-81
2022/04/02 10:06:27;;;;;;;2.95;1.35;;;;;;;;;;4950121;28;20034;-80
2022/04/02 10:09:06;;;;;;;4.00;1.25;;;;;;;;;;4945764;28;20616;-81
2022/04/02 10:11:34;;;;;;;5.20;1.42;;;;;;;;;;4958402;28;20042;-81
2022/04/02 10:14:02;;;;;;;5.15;1.65;;;;;;;;;;4943613;28;20081;-81
2022/04/02 10:16:29;;;;;;;3.92;1.38;;;;;;;;;;4961237;28;20560;-81
2022/04/02 10:18:56;;;;;;;5.15;1.30;;;;;;;;;;4966317;28;20108;-81
2022/04/02 10:21:22;;;;;;;4.78;1.65;;;;;;;;;;4957920;28;20574;-81
2022/04/02 10:23:52;;;;;;;3.17;1.63;;;;;;;;;;4960453;28;20479;-81
2022/04/02 10:26:20;;;;;;;11.82;1.83;;;;;;;;;;4958858;28;20708;-82
2022/04/02 10:28:46;;;;;;;6.63;1.52;;;;;;;;;;4946926;28;20023;-81
2022/04/02 10:31:19;;;;;;;5.15;1.75;;;;;;;;;;4948117;28;20541;-81
2022/04/02 10:33:48;;;;;;;4.78;1.40;;;;;;;;;;4941494;28;20038;-81
2022/04/02 10:36:14;;;;;;;6.78;1.75;;;;;;;;;;4957636;28;20036;-81
2022/04/02 10:38:42;;;;;;;2.72;1.27;;;;;;;;;;4952753;28;20393;-82
2022/04/02 10:41:17;;;;;;;4.97;1.33;;;;;;;;;;4943346;28;20034;-82
2022/04/02 10:43:59;;;;;;;3.53;1.73;;;;;;;;;;4960644;28;20035;-81
2022/04/02 10:46:31;;;;;;;4.38;1.40;;;;;;;;;;4941795;28;20035;-81
2022/04/02 10:48:59;;;;;;;5.07;1.75;;;;;;;;;;4954776;28;20089;-81
2022/04/02 10:51:26;;;;;;;2.97;1.33;;;;;;;;;;4957408;28;20027;-80
2022/04/02 10:53:59;;;;;;;2.80;1.52;;;;;;;;;;4941160;28;20031;-81
2022/04/02 10:56:28;;;;;;;3.58;1.70;;;;;;;;;;4956930;28;20037;-81
2022/04/02 10:58:54;;;;;;;4.18;2.05;;;;;;;;;;4957295;28;20766;-81
2022/04/02 11:01:22;;;;;;;5.35;1.55;;;;;;;;;;4958701;28;20093;-81
2022/04/02 11:03:55;;;;;;;3.15;1.42;;;;;;;;;;4955722;28;20347;-80
2022/04/02 11:06:40;;;;;;;8.98;1.67;;;;;;;;;;4935110;28;20073;-82
2022/04/02 11:09:39;;;;;;;3.05;1.80;;;;;;;;;;4961047;28;20039;-81
2022/04/02 11:12:09;;;;;;;2.97;1.45;;;;;;;;;;4940118;28;20134;-81
2022/04/02 11:14:43;;;;;;;4.57;1.30;;;;;;;;;;4966467;28;20150;-81
2022/04/02 11:17:09;;;;;;;4.47;1.95;;;;;;;;;;4964237;28;20487;-81
2022/04/02 11:19:55;;;;;;;5.47;1.30;;;;;;;;;;4958560;28;20430;-81
2022/04/02 11:22:26;;;;;;;10.70;2.35;;;;;;;;;;4964148;28;20035;-82
2022/04/02 11:24:57;;;;;;;2.05;1.20;;;;;;;;;;4968241;28;20035;-81
2022/04/02 11:27:28;;;;;;;5.90;1.30;;;;;;;;;;4970139;28;20543;-81
2022/04/02 11:30:00;;;;;;;9.35;1.73;;;;;;;;;;4984733;28;20053;-82
2022/04/02 11:32:28;;;;;;;2.60;1.30;;;;;;;;;;4981570;28;20060;-82
2022/04/02 11:34:56;;;;;;;3.47;1.55;;;;;;;;;;4971971;28;20034;-82
2022/04/02 11:37:27;;;;;;;2.60;1.38;;;;;;;;;;4987394;28;20105;-82
2022/04/02 11:39:55;;;;;;;4.15;1.75;;;;;;;;;;4968723;28;20046;-82
2022/04/02 11:42:25;;;;;;;7.28;2.20;;;;;;;;;;4975449;28;20026;-82
2022/04/02 11:44:52;;;;;;;7.60;1.70;;;;;;;;;;4973927;28;20046;-82
2022/04/02 11:47:26;;;;;;;4.72;1.92;;;;;;;;;;4969675;28;20101;-82
2022/04/02 11:49:54;;;;;;;5.22;1.90;;;;;;;;;;4986719;28;20034;-82
2022/04/02 11:52:20;;;;;;;3.33;1.35;;;;;;;;;;4972394;28;20073;-81
2022/04/02 11:54:50;;;;;;;2.60;1.48;;;;;;;;;;4971170;28;20034;-81
2022/04/02 11:57:17;;;;;;;6.40;1.40;;;;;;;;;;4983947;28;20014;-82
2022/04/02 11:59:56;;;;;;;3.20;1.63;;;;;;;;;;4976583;28;21056;-81
2022/04/02 12:02:47;;;;;;;4.38;1.60;;;;;;;;;;4983705;28;20120;-81
2022/04/02 12:05:14;;;;;;;3.60;1.80;;;;;;;;;;4961850;28;20176;-79
2022/04/02 12:07:47;;;;;;;6.97;1.70;;;;;;;;;;4982241;28;20266;-80
2022/04/02 12:10:13;;;;;;;6.65;1.67;;;;;;;;;;4968048;28;20129;-80
2022/04/02 12:12:43;;;;;;;1.30;1.10;;;;;;;;;;4966269;28;20121;-81
2022/04/02 12:15:10;;;;;;;7.85;2.00;;;;;;;;;;4976398;28;20609;-80
2022/04/02 12:17:37;;;;;;;2.58;1.35;;;;;;;;;;4973000;28;20994;-81
2022/04/02 12:20:04;;;;;;;4.28;1.85;;;;;;;;;;4985738;28;20806;-82
2022/04/02 12:22:33;;;;;;;4.50;1.52;;;;;;;;;;4975816;28;20442;-82
2022/04/02 12:25:00;;;;;;;2.28;1.33;;;;;;;;;;4982739;28;20026;-80
2022/04/02 12:27:28;;;;;;;1.60;1.17;;;;;;;;;;4979241;28;20505;-81
2022/04/02 12:29:56;;;;;;;3.67;1.33;;;;;;;;;;4963299;28;20026;-79
2022/04/02 12:32:32;;;;;;;4.40;1.75;;;;;;;;;;4986526;28;20543;-80
2022/04/02 12:35:03;;;;;;;3.90;1.20;;;;;;;;;;4955434;28;20041;-80
2022/04/02 12:37:30;;;;;;;2.30;1.38;;;;;;;;;;4964037;28;21199;-80
2022/04/02 12:39:57;;;;;;;2.00;1.60;;;;;;;;;;4960370;28;20015;-80
2022/04/02 12:42:42;;;;;;;4.70;2.00;;;;;;;;;;4962053;28;20046;-80
2022/04/02 12:45:10;;;;;;;9.90;1.83;;;;;;;;;;4970568;28;20089;-80
2022/04/02 12:47:36;;;;;;;3.67;1.50;;;;;;;;;;4976596;28;20090;-79
2022/04/02 12:50:16;;;;;;;1.58;1.33;;;;;;;;;;4960824;28;20050;-80
2022/04/02 12:52:46;;;;;;;3.08;1.45;;;;;;;;;;4969291;28;20033;-80
2022/04/02 12:55:18;;;;;;;1.75;1.10;;;;;;;;;;4972036;28;20489;-80
2022/04/02 12:57:55;;;;;;;4.00;1.08;;;;;;;;;;4967871;28;20022;-80
2022/04/02 13:00:25;;;;;;;3.17;1.30;;;;;;;;;;4981970;28;20490;-81
2022/04/02 13:02:55;;;;;;;2.75;1.52;;;;;;;;;;4975828;28;20030;-81
2022/04/02 13:05:24;;;;;;;4.40;1.30;;;;;;;;;;4981993;28;20038;-80
2022/04/02 13:08:01;;;;;;;2.83;1.42;;;;;;;;;;4977463;28;20034;-80
2022/04/02 13:10:29;;;;;;;1.65;1.25;;;;;;;;;;4971749;28;20130;-81
2022/04/02 13:12:59;;;;;;;4.38;2.10;;;;;;;;;;4981226;28;20043;-81
2022/04/02 13:15:27;;;;;;;3.13;1.10;;;;;;;;;;4978310;28;20478;-80
2022/04/02 13:20:44;;;;;;;5.97;1.58;;;;;;;;;;4984434;28;20044;-81
2022/04/02 13:23:26;;;;;;;2.45;1.30;;;;;;;;;;4961986;28;20394;-80
2022/04/02 13:25:59;;;;;;;6.18;2.08;;;;;;;;;;4954078;28;21091;-81
2022/04/02 13:28:25;;;;;;;7.75;2.72;;;;;;;;;;4971059;28;20045;-81
2022/04/02 13:30:52;;;;;;;6.95;2.78;;;;;;;;;;4971899;28;20427;-81
2022/04/02 13:33:18;;;;;;;6.35;2.53;;;;;;;;;;4975871;28;20030;-81
2022/04/02 13:35:44;;;;;;;7.03;1.90;;;;;;;;;;4965138;28;20038;-81
2022/04/02 13:38:19;;;;;;;2.92;1.40;;;;;;;;;;4974670;28;20034;-81
2022/04/02 13:40:47;;;;;;;3.93;1.30;;;;;;;;;;4959647;28;20038;-81
2022/04/02 13:43:20;;;;;;;1.90;1.15;;;;;;;;;;4980411;28;20293;-81
2022/04/02 13:45:47;;;;;;;4.68;1.25;;;;;;;;;;4976643;28;20033;-81
2022/04/02 13:48:18;;;;;;;4.82;1.40;;;;;;;;;;4973468;28;20797;-81
2022/04/02 13:50:53;;;;;;;3.15;1.13;;;;;;;;;;4959811;28;20030;-81
2022/04/02 13:53:22;;;;;;;3.38;1.23;;;;;;;;;;4961370;28;20517;-80
2022/04/02 13:55:49;;;;;;;4.00;1.52;;;;;;;;;;4962759;28;20513;-82
2022/04/02 13:58:20;;;;;;;4.88;1.60;;;;;;;;;;4967110;28;20039;-81
2022/04/02 14:00:51;;;;;;;3.47;1.13;;;;;;;;;;4958563;28;20121;-82
2022/04/02 14:03:21;;;;;;;4.32;1.40;;;;;;;;;;4960046;28;20197;-81
2022/04/02 14:05:50;;;;;;;2.97;1.40;;;;;;;;;;4978225;28;20121;-81
2022/04/02 14:08:18;;;;;;;2.97;1.30;;;;;;;;;;4963269;28;20104;-81
2022/04/02 14:10:48;;;;;;;5.20;1.25;;;;;;;;;;4974728;28;20113;-81
2022/04/02 14:13:21;;;;;;;3.13;1.40;;;;;;;;;;4965622;28;20034;-81
2022/04/02 14:15:52;;;;;;;3.38;1.40;;;;;;;;;;4964555;28;20064;-81
2022/04/02 14:18:22;;;;;;;4.13;1.55;;;;;;;;;;4979074;28;20746;-81
2022/04/02 14:20:51;;;;;;;7.63;2.40;;;;;;;;;;4973078;28;20122;-80
2022/04/02 14:23:23;;;;;;;2.08;1.60;;;;;;;;;;4974294;28;20080;-81
2022/04/02 14:26:08;;;;;;;2.80;1.80;;;;;;;;;;4963388;28;20046;-81
2022/04/02 14:28:34;;;;;;;2.30;1.30;;;;;;;;;;4957328;28;20038;-80
2022/04/02 14:31:17;;;;;;;2.22;1.15;;;;;;;;;;4972231;28;20081;-81
2022/04/02 14:33:46;;;;;;;2.45;1.60;;;;;;;;;;4982226;28;20046;-81
2022/04/02 14:36:30;;;;;;;6.25;1.90;;;;;;;;;;4975916;28;20141;-81
2022/04/02 14:38:59;;;;;;;3.85;1.77;;;;;;;;;;4977155;28;20038;-81
2022/04/02 14:41:42;;;;;;;12.10;1.90;;;;;;;;;;4976576;28;20027;-81
2022/04/02 14:44:26;;;;;;;1.92;1.17;;;;;;;;;;4965928;28;20045;-81
2022/04/02 14:46:58;;;;;;;3.58;1.42;;;;;;;;;;4966088;28;20489;-81
2022/04/02 14:49:31;;;;;;;3.03;1.45;;;;;;;;;;4981861;28;20614;-81
2022/04/02 14:52:15;;;;;;;2.17;1.27;;;;;;;;;;4965543;28;20038;-81
2022/04/02 14:54:44;;;;;;;4.18;1.63;;;;;;;;;;4981366;28;20042;-82
2022/04/02 14:57:10;;;;;;;7.45;1.27;;;;;;;;;;4963726;28;20532;-80
2022/04/02 14:59:55;;;;;;;5.63;1.50;;;;;;;;;;4977390;28;20101;-81
2022/04/02 15:02:40;;;;;;;1.90;0.98;;;;;;;;;;4966163;28;20041;-81